sensor_id;sensor_type;location;lat;lon;timestamp;P1;durP1;ratioP1;P2;durP2;ratioP2
55869;SDS011;41790;50.940;4.560;2023-02-21T00:02:09;29.33;;;11.68;;
55869;SDS011;41790;50.940;4.560;2023-02-21T00:04:56;30.00;;;10.25;;
55869;SDS011;41790;50.940;4.560;2023-02-21T00:07:40;27.58;;;10.32;;
55869;SDS011;41790;50.940;4.560;2023-02-21T00:10:25;34.65;;;11.52;;
55869;SDS011;41790;50.940;4.560;2023-02-21T00:13:09;29.27;;;11.60;;
55869;SDS011;41790;50.940;4.560;2023-02-21T00:15:56;26.70;;;9.60;;
55869;SDS011;41790;50.940;4.560;2023-02-21T00:18:41;27.63;;;10.35;;
55869;SDS011;41790;50.940;4.560;2023-02-21T00:21:29;32.00;;;11.60;;
55869;SDS011;41790;50.940;4.560;2023-02-21T00:24:14;26.75;;;10.55;;
55869;SDS011;41790;50.940;4.560;2023-02-21T00:27:01;32.17;;;11.10;;
55869;SDS011;41790;50.940;4.560;2023-02-21T00:29:49;26.42;;;10.32;;
55869;SDS011;41790;50.940;4.560;2023-02-21T00:32:34;30.45;;;10.52;;
55869;SDS011;41790;50.940;4.560;2023-02-21T00:35:18;31.00;;;11.30;;
55869;SDS011;41790;50.940;4.560;2023-02-21T00:38:03;33.45;;;12.05;;
55869;SDS011;41790;50.940;4.560;2023-02-21T00:40:47;23.05;;;9.48;;
55869;SDS011;41790;50.940;4.560;2023-02-21T00:43:33;27.30;;;10.25;;
55869;SDS011;41790;50.940;4.560;2023-02-21T00:46:18;28.20;;;10.35;;
55869;SDS011;41790;50.940;4.560;2023-02-21T00:49:03;30.05;;;10.25;;
55869;SDS011;41790;50.940;4.560;2023-02-21T00:51:48;24.88;;;8.93;;
55869;SDS011;41790;50.940;4.560;2023-02-21T00:54:33;29.33;;;9.35;;
55869;SDS011;41790;50.940;4.560;2023-02-21T00:57:18;27.13;;;10.05;;
55869;SDS011;41790;50.940;4.560;2023-02-21T01:00:03;30.50;;;10.88;;
55869;SDS011;41790;50.940;4.560;2023-02-21T01:02:49;26.70;;;10.25;;
55869;SDS011;41790;50.940;4.560;2023-02-21T01:05:33;27.75;;;10.43;;
55869;SDS011;41790;50.940;4.560;2023-02-21T01:08:17;31.55;;;10.48;;
55869;SDS011;41790;50.940;4.560;2023-02-21T01:11:01;28.35;;;9.60;;
55869;SDS011;41790;50.940;4.560;2023-02-21T01:13:46;24.30;;;9.23;;
55869;SDS011;41790;50.940;4.560;2023-02-21T01:16:30;26.63;;;10.32;;
55869;SDS011;41790;50.940;4.560;2023-02-21T01:19:15;31.23;;;10.48;;
55869;SDS011;41790;50.940;4.560;2023-02-21T01:22:00;21.00;;;9.35;;
55869;SDS011;41790;50.940;4.560;2023-02-21T01:24:47;24.67;;;9.20;;
55869;SDS011;41790;50.940;4.560;2023-02-21T01:27:32;22.08;;;9.23;;
55869;SDS011;41790;50.940;4.560;2023-02-21T01:30:16;25.63;;;8.52;;
55869;SDS011;41790;50.940;4.560;2023-02-21T01:33:00;25.73;;;9.13;;
55869;SDS011;41790;50.940;4.560;2023-02-21T01:35:44;24.67;;;8.73;;
55869;SDS011;41790;50.940;4.560;2023-02-21T01:38:31;22.38;;;8.80;;
55869;SDS011;41790;50.940;4.560;2023-02-21T01:41:16;25.65;;;8.40;;
55869;SDS011;41790;50.940;4.560;2023-02-21T01:44:05;19.77;;;8.05;;
55869;SDS011;41790;50.940;4.560;2023-02-21T01:47:10;19.70;;;7.72;;
55869;SDS011;41790;50.940;4.560;2023-02-21T01:49:55;24.05;;;7.65;;
55869;SDS011;41790;50.940;4.560;2023-02-21T01:52:40;23.98;;;7.88;;
55869;SDS011;41790;50.940;4.560;2023-02-21T01:55:25;29.10;;;8.27;;
55869;SDS011;41790;50.940;4.560;2023-02-21T01:58:09;27.13;;;9.77;;
55869;SDS011;41790;50.940;4.560;2023-02-21T02:00:54;21.50;;;9.30;;
55869;SDS011;41790;50.940;4.560;2023-02-21T02:03:38;22.98;;;8.48;;
55869;SDS011;41790;50.940;4.560;2023-02-21T02:06:23;32.38;;;9.18;;
55869;SDS011;41790;50.940;4.560;2023-02-21T02:09:18;27.10;;;9.00;;
55869;SDS011;41790;50.940;4.560;2023-02-21T02:32:25;27.55;;;9.07;;
55869;SDS011;41790;50.940;4.560;2023-02-21T02:35:17;24.52;;;8.75;;
55869;SDS011;41790;50.940;4.560;2023-02-21T02:37:57;28.58;;;9.25;;
55869;SDS011;41790;50.940;4.560;2023-02-21T02:43:48;23.98;;;8.32;;
55869;SDS011;41790;50.940;4.560;2023-02-21T02:46:23;19.90;;;7.35;;
55869;SDS011;41790;50.940;4.560;2023-02-21T02:49:05;19.00;;;7.72;;
55869;SDS011;41790;50.940;4.560;2023-02-21T02:51:32;22.95;;;8.27;;
55869;SDS011;41790;50.940;4.560;2023-02-21T02:53:59;15.10;;;6.80;;
55869;SDS011;41790;50.940;4.560;2023-02-21T02:56:25;17.63;;;6.50;;
55869;SDS011;41790;50.940;4.560;2023-02-21T02:59:00;18.27;;;6.28;;
55869;SDS011;41790;50.940;4.560;2023-02-21T03:01:34;18.63;;;6.50;;
55869;SDS011;41790;50.940;4.560;2023-02-21T03:12:32;13.52;;;5.00;;
55869;SDS011;41790;50.940;4.560;2023-02-21T03:15:36;15.65;;;5.95;;
55869;SDS011;41790;50.940;4.560;2023-02-21T03:20:52;17.35;;;6.15;;
55869;SDS011;41790;50.940;4.560;2023-02-21T03:23:21;18.65;;;7.18;;
55869;SDS011;41790;50.940;4.560;2023-02-21T03:25:50;10.90;;;4.93;;
55869;SDS011;41790;50.940;4.560;2023-02-21T03:28:17;17.80;;;6.40;;
55869;SDS011;41790;50.940;4.560;2023-02-21T03:30:44;22.70;;;7.13;;
55869;SDS011;41790;50.940;4.560;2023-02-21T03:33:15;19.33;;;6.30;;
55869;SDS011;41790;50.940;4.560;2023-02-21T03:35:41;14.05;;;6.20;;
55869;SDS011;41790;50.940;4.560;2023-02-21T03:38:07;13.95;;;6.20;;
55869;SDS011;41790;50.940;4.560;2023-02-21T03:40:34;13.55;;;6.13;;
55869;SDS011;41790;50.940;4.560;2023-02-21T03:43:01;17.80;;;6.28;;
55869;SDS011;41790;50.940;4.560;2023-02-21T03:45:31;15.77;;;5.93;;
55869;SDS011;41790;50.940;4.560;2023-02-21T03:47:57;21.10;;;5.80;;
55869;SDS011;41790;50.940;4.560;2023-02-21T03:50:23;15.55;;;6.50;;
55869;SDS011;41790;50.940;4.560;2023-02-21T03:52:48;16.55;;;5.97;;
55869;SDS011;41790;50.940;4.560;2023-02-21T03:55:14;17.60;;;5.82;;
55869;SDS011;41790;50.940;4.560;2023-02-21T03:57:40;17.55;;;6.47;;
55869;SDS011;41790;50.940;4.560;2023-02-21T04:00:06;14.68;;;6.07;;
55869;SDS011;41790;50.940;4.560;2023-02-21T04:02:32;17.95;;;5.78;;
55869;SDS011;41790;50.940;4.560;2023-02-21T04:04:58;16.23;;;6.30;;
55869;SDS011;41790;50.940;4.560;2023-02-21T04:07:24;22.23;;;7.22;;
55869;SDS011;41790;50.940;4.560;2023-02-21T04:09:50;23.52;;;7.57;;
55869;SDS011;41790;50.940;4.560;2023-02-21T04:12:16;25.15;;;8.07;;
55869;SDS011;41790;50.940;4.560;2023-02-21T04:14:41;22.17;;;6.72;;
55869;SDS011;41790;50.940;4.560;2023-02-21T04:17:07;28.33;;;8.70;;
55869;SDS011;41790;50.940;4.560;2023-02-21T04:19:33;23.48;;;8.82;;
55869;SDS011;41790;50.940;4.560;2023-02-21T04:21:59;25.33;;;8.82;;
55869;SDS011;41790;50.940;4.560;2023-02-21T04:24:24;30.05;;;9.40;;
55869;SDS011;41790;50.940;4.560;2023-02-21T04:26:50;25.83;;;8.80;;
55869;SDS011;41790;50.940;4.560;2023-02-21T04:29:16;28.85;;;8.57;;
55869;SDS011;41790;50.940;4.560;2023-02-21T04:31:41;22.05;;;9.00;;
55869;SDS011;41790;50.940;4.560;2023-02-21T04:34:07;30.52;;;9.80;;
55869;SDS011;41790;50.940;4.560;2023-02-21T04:36:33;29.90;;;8.48;;
55869;SDS011;41790;50.940;4.560;2023-02-21T04:39:01;30.75;;;9.15;;
55869;SDS011;41790;50.940;4.560;2023-02-21T04:41:27;22.80;;;8.25;;
55869;SDS011;41790;50.940;4.560;2023-02-21T04:43:52;25.88;;;6.97;;
55869;SDS011;41790;50.940;4.560;2023-02-21T04:46:18;23.25;;;8.25;;
55869;SDS011;41790;50.940;4.560;2023-02-21T04:48:45;24.67;;;8.68;;
55869;SDS011;41790;50.940;4.560;2023-02-21T04:51:12;22.73;;;7.75;;
55869;SDS011;41790;50.940;4.560;2023-02-21T04:53:38;24.85;;;7.20;;
55869;SDS011;41790;50.940;4.560;2023-02-21T04:56:04;19.63;;;7.03;;
55869;SDS011;41790;50.940;4.560;2023-02-21T04:58:30;16.80;;;6.88;;
55869;SDS011;41790;50.940;4.560;2023-02-21T05:00:56;21.90;;;6.63;;
55869;SDS011;41790;50.940;4.560;2023-02-21T05:03:21;21.27;;;7.68;;
55869;SDS011;41790;50.940;4.560;2023-02-21T05:05:48;22.00;;;7.25;;
55869;SDS011;41790;50.940;4.560;2023-02-21T05:08:14;20.50;;;7.30;;
55869;SDS011;41790;50.940;4.560;2023-02-21T05:10:40;22.23;;;6.85;;
55869;SDS011;41790;50.940;4.560;2023-02-21T05:13:06;20.45;;;6.95;;
55869;SDS011;41790;50.940;4.560;2023-02-21T05:15:31;18.67;;;7.10;;
55869;SDS011;41790;50.940;4.560;2023-02-21T05:17:57;23.23;;;7.43;;
55869;SDS011;41790;50.940;4.560;2023-02-21T05:20:23;22.48;;;6.95;;
55869;SDS011;41790;50.940;4.560;2023-02-21T05:22:49;19.85;;;7.03;;
55869;SDS011;41790;50.940;4.560;2023-02-21T05:25:18;19.27;;;7.40;;
55869;SDS011;41790;50.940;4.560;2023-02-21T05:27:45;16.50;;;5.75;;
55869;SDS011;41790;50.940;4.560;2023-02-21T05:30:12;18.02;;;7.00;;
55869;SDS011;41790;50.940;4.560;2023-02-21T05:32:41;19.42;;;6.80;;
55869;SDS011;41790;50.940;4.560;2023-02-21T05:35:08;19.52;;;6.70;;
55869;SDS011;41790;50.940;4.560;2023-02-21T05:37:34;18.70;;;5.95;;
55869;SDS011;41790;50.940;4.560;2023-02-21T05:40:00;17.38;;;7.20;;
55869;SDS011;41790;50.940;4.560;2023-02-21T05:42:26;20.33;;;6.50;;
55869;SDS011;41790;50.940;4.560;2023-02-21T05:44:52;17.15;;;6.30;;
55869;SDS011;41790;50.940;4.560;2023-02-21T05:47:17;18.17;;;6.00;;
55869;SDS011;41790;50.940;4.560;2023-02-21T05:49:43;17.95;;;6.07;;
55869;SDS011;41790;50.940;4.560;2023-02-21T05:52:13;18.48;;;6.03;;
55869;SDS011;41790;50.940;4.560;2023-02-21T05:54:40;13.50;;;5.50;;
55869;SDS011;41790;50.940;4.560;2023-02-21T05:57:06;12.73;;;5.70;;
55869;SDS011;41790;50.940;4.560;2023-02-21T05:59:32;12.20;;;5.45;;
55869;SDS011;41790;50.940;4.560;2023-02-21T06:01:57;14.88;;;5.50;;
55869;SDS011;41790;50.940;4.560;2023-02-21T06:04:23;14.27;;;4.90;;
55869;SDS011;41790;50.940;4.560;2023-02-21T06:06:49;18.35;;;5.88;;
55869;SDS011;41790;50.940;4.560;2023-02-21T06:09:15;10.95;;;4.45;;
55869;SDS011;41790;50.940;4.560;2023-02-21T06:11:42;17.10;;;5.38;;
55869;SDS011;41790;50.940;4.560;2023-02-21T06:14:17;10.77;;;4.78;;
55869;SDS011;41790;50.940;4.560;2023-02-21T06:16:44;16.08;;;5.22;;
55869;SDS011;41790;50.940;4.560;2023-02-21T06:19:11;10.95;;;4.70;;
55869;SDS011;41790;50.940;4.560;2023-02-21T06:21:38;10.90;;;4.72;;
55869;SDS011;41790;50.940;4.560;2023-02-21T06:24:07;11.93;;;4.30;;
55869;SDS011;41790;50.940;4.560;2023-02-21T06:26:34;14.32;;;5.35;;
55869;SDS011;41790;50.940;4.560;2023-02-21T06:29:02;8.48;;;3.92;;
55869;SDS011;41790;50.940;4.560;2023-02-21T06:31:31;12.25;;;4.50;;
55869;SDS011;41790;50.940;4.560;2023-02-21T06:33:57;13.25;;;3.92;;
55869;SDS011;41790;50.940;4.560;2023-02-21T06:36:24;11.20;;;4.57;;
55869;SDS011;41790;50.940;4.560;2023-02-21T06:38:52;11.80;;;4.60;;
55869;SDS011;41790;50.940;4.560;2023-02-21T06:41:21;12.27;;;4.07;;
55869;SDS011;41790;50.940;4.560;2023-02-21T06:43:49;11.02;;;4.30;;
55869;SDS011;41790;50.940;4.560;2023-02-21T06:46:19;9.18;;;4.38;;
55869;SDS011;41790;50.940;4.560;2023-02-21T06:48:46;10.13;;;4.30;;
55869;SDS011;41790;50.940;4.560;2023-02-21T06:51:12;7.63;;;3.97;;
55869;SDS011;41790;50.940;4.560;2023-02-21T06:53:40;10.57;;;3.92;;
55869;SDS011;41790;50.940;4.560;2023-02-21T06:56:06;11.02;;;3.65;;
55869;SDS011;41790;50.940;4.560;2023-02-21T06:58:35;9.60;;;4.10;;
55869;SDS011;41790;50.940;4.560;2023-02-21T07:01:03;13.52;;;4.40;;
55869;SDS011;41790;50.940;4.560;2023-02-21T07:03:29;8.05;;;3.72;;
55869;SDS011;41790;50.940;4.560;2023-02-21T07:05:55;8.77;;;3.25;;
55869;SDS011;41790;50.940;4.560;2023-02-21T07:08:21;10.73;;;4.10;;
55869;SDS011;41790;50.940;4.560;2023-02-21T07:10:46;9.40;;;3.55;;
55869;SDS011;41790;50.940;4.560;2023-02-21T07:13:12;8.07;;;3.22;;
55869;SDS011;41790;50.940;4.560;2023-02-21T07:15:38;5.82;;;2.75;;
55869;SDS011;41790;50.940;4.560;2023-02-21T07:18:04;8.07;;;3.55;;
55869;SDS011;41790;50.940;4.560;2023-02-21T07:20:29;12.20;;;3.85;;
55869;SDS011;41790;50.940;4.560;2023-02-21T07:22:57;6.75;;;2.72;;
55869;SDS011;41790;50.940;4.560;2023-02-21T07:25:23;12.52;;;3.95;;
55869;SDS011;41790;50.940;4.560;2023-02-21T07:27:49;7.57;;;3.13;;
55869;SDS011;41790;50.940;4.560;2023-02-21T07:30:16;8.75;;;3.38;;
55869;SDS011;41790;50.940;4.560;2023-02-21T07:32:42;10.10;;;3.78;;
55869;SDS011;41790;50.940;4.560;2023-02-21T07:35:08;8.32;;;3.13;;
55869;SDS011;41790;50.940;4.560;2023-02-21T07:37:34;8.27;;;3.15;;
55869;SDS011;41790;50.940;4.560;2023-02-21T07:40:00;7.90;;;3.10;;
55869;SDS011;41790;50.940;4.560;2023-02-21T07:42:26;6.88;;;3.05;;
55869;SDS011;41790;50.940;4.560;2023-02-21T07:44:55;7.15;;;2.47;;
55869;SDS011;41790;50.940;4.560;2023-02-21T07:47:22;7.32;;;3.25;;
55869;SDS011;41790;50.940;4.560;2023-02-21T07:49:49;6.43;;;2.92;;
55869;SDS011;41790;50.940;4.560;2023-02-21T07:52:15;7.40;;;2.83;;
55869;SDS011;41790;50.940;4.560;2023-02-21T07:54:42;8.13;;;3.17;;
55869;SDS011;41790;50.940;4.560;2023-02-21T07:57:08;7.47;;;2.67;;
55869;SDS011;41790;50.940;4.560;2023-02-21T07:59:34;6.50;;;2.50;;
55869;SDS011;41790;50.940;4.560;2023-02-21T08:01:59;6.35;;;2.67;;
55869;SDS011;41790;50.940;4.560;2023-02-21T08:04:26;5.18;;;2.30;;
55869;SDS011;41790;50.940;4.560;2023-02-21T08:06:57;5.22;;;2.53;;
55869;SDS011;41790;50.940;4.560;2023-02-21T08:09:24;6.85;;;3.08;;
55869;SDS011;41790;50.940;4.560;2023-02-21T08:11:50;8.50;;;2.90;;
55869;SDS011;41790;50.940;4.560;2023-02-21T08:14:15;7.80;;;3.08;;
55869;SDS011;41790;50.940;4.560;2023-02-21T08:16:41;8.57;;;2.92;;
55869;SDS011;41790;50.940;4.560;2023-02-21T08:19:07;4.47;;;2.53;;
55869;SDS011;41790;50.940;4.560;2023-02-21T08:21:33;7.80;;;2.78;;
55869;SDS011;41790;50.940;4.560;2023-02-21T08:23:59;8.25;;;2.78;;
55869;SDS011;41790;50.940;4.560;2023-02-21T08:26:25;4.28;;;2.00;;
55869;SDS011;41790;50.940;4.560;2023-02-21T08:28:51;6.70;;;2.25;;
55869;SDS011;41790;50.940;4.560;2023-02-21T08:31:18;7.38;;;2.83;;
55869;SDS011;41790;50.940;4.560;2023-02-21T08:33:44;10.20;;;3.05;;
55869;SDS011;41790;50.940;4.560;2023-02-21T08:36:10;4.57;;;2.33;;
55869;SDS011;41790;50.940;4.560;2023-02-21T08:38:36;7.10;;;2.92;;
55869;SDS011;41790;50.940;4.560;2023-02-21T08:41:03;7.47;;;2.67;;
55869;SDS011;41790;50.940;4.560;2023-02-21T08:43:30;6.30;;;2.67;;
55869;SDS011;41790;50.940;4.560;2023-02-21T08:45:57;4.82;;;2.38;;
55869;SDS011;41790;50.940;4.560;2023-02-21T08:48:23;7.43;;;3.10;;
55869;SDS011;41790;50.940;4.560;2023-02-21T08:50:49;5.90;;;2.80;;
55869;SDS011;41790;50.940;4.560;2023-02-21T08:53:17;5.95;;;2.50;;
55869;SDS011;41790;50.940;4.560;2023-02-21T08:55:43;7.10;;;2.72;;
55869;SDS011;41790;50.940;4.560;2023-02-21T08:58:10;5.45;;;2.78;;
55869;SDS011;41790;50.940;4.560;2023-02-21T09:00:37;6.63;;;2.42;;
55869;SDS011;41790;50.940;4.560;2023-02-21T09:03:03;8.05;;;2.60;;
55869;SDS011;41790;50.940;4.560;2023-02-21T09:05:30;8.80;;;3.05;;
55869;SDS011;41790;50.940;4.560;2023-02-21T09:07:57;7.68;;;2.92;;
55869;SDS011;41790;50.940;4.560;2023-02-21T09:10:29;9.35;;;3.22;;
55869;SDS011;41790;50.940;4.560;2023-02-21T09:12:58;9.93;;;3.08;;
55869;SDS011;41790;50.940;4.560;2023-02-21T09:15:24;7.95;;;3.22;;
55869;SDS011;41790;50.940;4.560;2023-02-21T09:17:50;8.68;;;3.35;;
55869;SDS011;41790;50.940;4.560;2023-02-21T09:20:20;11.05;;;3.75;;
55869;SDS011;41790;50.940;4.560;2023-02-21T09:22:49;9.45;;;3.47;;
55869;SDS011;41790;50.940;4.560;2023-02-21T09:25:16;8.25;;;3.58;;
55869;SDS011;41790;50.940;4.560;2023-02-21T09:27:47;8.27;;;2.80;;
55869;SDS011;41790;50.940;4.560;2023-02-21T09:30:22;10.52;;;3.60;;
55869;SDS011;41790;50.940;4.560;2023-02-21T09:32:50;11.20;;;3.90;;
55869;SDS011;41790;50.940;4.560;2023-02-21T09:35:16;11.63;;;3.45;;
55869;SDS011;41790;50.940;4.560;2023-02-21T09:37:43;9.35;;;3.63;;
55869;SDS011;41790;50.940;4.560;2023-02-21T09:40:15;6.20;;;3.33;;
55869;SDS011;41790;50.940;4.560;2023-02-21T09:42:57;9.75;;;3.47;;
55869;SDS011;41790;50.940;4.560;2023-02-21T09:45:27;7.25;;;3.60;;
55869;SDS011;41790;50.940;4.560;2023-02-21T09:47:57;6.28;;;3.10;;
55869;SDS011;41790;50.940;4.560;2023-02-21T09:50:27;7.72;;;3.58;;
55869;SDS011;41790;50.940;4.560;2023-02-21T09:52:58;9.10;;;3.30;;
55869;SDS011;41790;50.940;4.560;2023-02-21T09:58:02;11.25;;;3.78;;
55869;SDS011;41790;50.940;4.560;2023-02-21T10:00:35;10.98;;;4.07;;
55869;SDS011;41790;50.940;4.560;2023-02-21T10:09:05;7.63;;;3.22;;
55869;SDS011;41790;50.940;4.560;2023-02-21T10:12:49;10.90;;;4.28;;
55869;SDS011;41790;50.940;4.560;2023-02-21T10:15:07;11.68;;;4.38;;
55869;SDS011;41790;50.940;4.560;2023-02-21T10:17:39;12.75;;;4.35;;
55869;SDS011;41790;50.940;4.560;2023-02-21T10:20:14;14.82;;;4.75;;
55869;SDS011;41790;50.940;4.560;2023-02-21T10:22:46;14.70;;;4.97;;
55869;SDS011;41790;50.940;4.560;2023-02-21T10:25:24;19.02;;;5.45;;
55869;SDS011;41790;50.940;4.560;2023-02-21T10:27:56;15.43;;;4.85;;
55869;SDS011;41790;50.940;4.560;2023-02-21T10:32:53;10.10;;;4.03;;
55869;SDS011;41790;50.940;4.560;2023-02-21T10:35:19;12.00;;;4.53;;
55869;SDS011;41790;50.940;4.560;2023-02-21T10:37:46;11.18;;;4.60;;
55869;SDS011;41790;50.940;4.560;2023-02-21T10:40:30;14.70;;;6.10;;
55869;SDS011;41790;50.940;4.560;2023-02-21T10:43:06;11.18;;;5.20;;
55869;SDS011;41790;50.940;4.560;2023-02-21T10:45:43;9.27;;;4.30;;
55869;SDS011;41790;50.940;4.560;2023-02-21T10:48:15;20.27;;;6.57;;
55869;SDS011;41790;50.940;4.560;2023-02-21T10:53:35;16.40;;;5.72;;
55869;SDS011;41790;50.940;4.560;2023-02-21T10:56:17;17.80;;;6.22;;
55869;SDS011;41790;50.940;4.560;2023-02-21T10:58:47;14.10;;;5.93;;
55869;SDS011;41790;50.940;4.560;2023-02-21T11:01:30;14.07;;;5.20;;
55869;SDS011;41790;50.940;4.560;2023-02-21T11:04:02;17.27;;;4.88;;
55869;SDS011;41790;50.940;4.560;2023-02-21T11:06:31;16.77;;;5.72;;
55869;SDS011;41790;50.940;4.560;2023-02-21T11:09:22;20.23;;;6.43;;
55869;SDS011;41790;50.940;4.560;2023-02-21T11:12:02;14.15;;;5.07;;
55869;SDS011;41790;50.940;4.560;2023-02-21T11:14:28;16.27;;;5.57;;
55869;SDS011;41790;50.940;4.560;2023-02-21T11:22:15;24.88;;;6.03;;
55869;SDS011;41790;50.940;4.560;2023-02-21T11:24:48;18.50;;;6.78;;
55869;SDS011;41790;50.940;4.560;2023-02-21T11:27:39;19.25;;;6.68;;
55869;SDS011;41790;50.940;4.560;2023-02-21T11:30:24;21.35;;;7.20;;
55869;SDS011;41790;50.940;4.560;2023-02-21T11:32:54;26.90;;;6.78;;
55869;SDS011;41790;50.940;4.560;2023-02-21T11:35:25;26.27;;;8.30;;
55869;SDS011;41790;50.940;4.560;2023-02-21T11:37:53;21.30;;;7.28;;
55869;SDS011;41790;50.940;4.560;2023-02-21T11:40:29;23.85;;;7.53;;
55869;SDS011;41790;50.940;4.560;2023-02-21T11:46:15;22.92;;;6.38;;
55869;SDS011;41790;50.940;4.560;2023-02-21T11:51:50;17.17;;;6.28;;
55869;SDS011;41790;50.940;4.560;2023-02-21T11:54:28;23.92;;;6.70;;
55869;SDS011;41790;50.940;4.560;2023-02-21T11:57:01;19.55;;;6.57;;
55869;SDS011;41790;50.940;4.560;2023-02-21T12:03:10;19.48;;;6.18;;
55869;SDS011;41790;50.940;4.560;2023-02-21T12:08:31;22.75;;;7.22;;
55869;SDS011;41790;50.940;4.560;2023-02-21T12:13:34;20.95;;;6.95;;
55869;SDS011;41790;50.940;4.560;2023-02-21T12:18:51;18.92;;;6.88;;
55869;SDS011;41790;50.940;4.560;2023-02-21T12:26:57;16.42;;;5.18;;
55869;SDS011;41790;50.940;4.560;2023-02-21T12:29:37;19.45;;;6.10;;
55869;SDS011;41790;50.940;4.560;2023-02-21T12:43:54;17.17;;;5.35;;
55869;SDS011;41790;50.940;4.560;2023-02-21T12:46:53;17.90;;;5.88;;
55869;SDS011;41790;50.940;4.560;2023-02-21T12:49:31;14.88;;;5.50;;
55869;SDS011;41790;50.940;4.560;2023-02-21T12:52:14;13.90;;;5.47;;
55869;SDS011;41790;50.940;4.560;2023-02-21T12:57:20;13.73;;;5.60;;
55869;SDS011;41790;50.940;4.560;2023-02-21T12:59:58;15.27;;;5.75;;
55869;SDS011;41790;50.940;4.560;2023-02-21T13:02:58;17.35;;;5.63;;
55869;SDS011;41790;50.940;4.560;2023-02-21T13:05:50;15.27;;;5.82;;
55869;SDS011;41790;50.940;4.560;2023-02-21T13:08:33;15.48;;;6.63;;
55869;SDS011;41790;50.940;4.560;2023-02-21T13:13:54;17.08;;;6.53;;
55869;SDS011;41790;50.940;4.560;2023-02-21T13:16:20;14.60;;;7.28;;
55869;SDS011;41790;50.940;4.560;2023-02-21T13:19:03;14.45;;;6.53;;
55869;SDS011;41790;50.940;4.560;2023-02-21T13:21:45;18.50;;;6.80;;
55869;SDS011;41790;50.940;4.560;2023-02-21T13:27:16;17.27;;;6.30;;
55869;SDS011;41790;50.940;4.560;2023-02-21T13:30:02;19.88;;;7.70;;
55869;SDS011;41790;50.940;4.560;2023-02-21T13:32:51;18.67;;;6.68;;
55869;SDS011;41790;50.940;4.560;2023-02-21T13:38:00;19.33;;;7.15;;
55869;SDS011;41790;50.940;4.560;2023-02-21T13:43:01;21.73;;;7.60;;
55869;SDS011;41790;50.940;4.560;2023-02-21T13:45:35;19.15;;;6.80;;
55869;SDS011;41790;50.940;4.560;2023-02-21T13:55:33;18.88;;;6.65;;
55869;SDS011;41790;50.940;4.560;2023-02-21T14:02:55;18.20;;;7.40;;
55869;SDS011;41790;50.940;4.560;2023-02-21T14:11:17;20.35;;;6.82;;
55869;SDS011;41790;50.940;4.560;2023-02-21T14:13:51;20.30;;;6.70;;
55869;SDS011;41790;50.940;4.560;2023-02-21T14:19:01;22.05;;;7.20;;
55869;SDS011;41790;50.940;4.560;2023-02-21T14:24:15;16.92;;;7.80;;
55869;SDS011;41790;50.940;4.560;2023-02-21T14:29:27;15.70;;;6.20;;
55869;SDS011;41790;50.940;4.560;2023-02-21T14:32:14;16.15;;;6.13;;
55869;SDS011;41790;50.940;4.560;2023-02-21T14:39:50;16.70;;;6.40;;
55869;SDS011;41790;50.940;4.560;2023-02-21T14:51:47;18.20;;;6.35;;
55869;SDS011;41790;50.940;4.560;2023-02-21T14:55:01;14.82;;;6.30;;
55869;SDS011;41790;50.940;4.560;2023-02-21T15:02:46;19.65;;;7.53;;
55869;SDS011;41790;50.940;4.560;2023-02-21T15:08:29;17.70;;;6.97;;
55869;SDS011;41790;50.940;4.560;2023-02-21T15:11:19;19.23;;;6.65;;
55869;SDS011;41790;50.940;4.560;2023-02-21T15:16:47;16.05;;;6.72;;
55869;SDS011;41790;50.940;4.560;2023-02-21T15:19:20;16.50;;;6.50;;
55869;SDS011;41790;50.940;4.560;2023-02-21T15:22:05;22.42;;;6.95;;
55869;SDS011;41790;50.940;4.560;2023-02-21T15:24:31;14.40;;;6.38;;
55869;SDS011;41790;50.940;4.560;2023-02-21T15:27:12;21.92;;;8.20;;
55869;SDS011;41790;50.940;4.560;2023-02-21T15:29:39;16.33;;;6.53;;
55869;SDS011;41790;50.940;4.560;2023-02-21T15:32:05;12.75;;;5.82;;
55869;SDS011;41790;50.940;4.560;2023-02-21T15:34:34;21.90;;;7.47;;
55869;SDS011;41790;50.940;4.560;2023-02-21T15:39:49;12.65;;;5.55;;
55869;SDS011;41790;50.940;4.560;2023-02-21T15:42:18;18.88;;;7.13;;
55869;SDS011;41790;50.940;4.560;2023-02-21T15:47:21;17.50;;;6.80;;
55869;SDS011;41790;50.940;4.560;2023-02-21T15:52:40;18.83;;;7.45;;
55869;SDS011;41790;50.940;4.560;2023-02-21T15:57:42;16.13;;;6.35;;
55869;SDS011;41790;50.940;4.560;2023-02-21T16:00:25;16.65;;;7.28;;
55869;SDS011;41790;50.940;4.560;2023-02-21T16:06:15;23.15;;;7.15;;
55869;SDS011;41790;50.940;4.560;2023-02-21T16:11:42;15.82;;;6.57;;
55869;SDS011;41790;50.940;4.560;2023-02-21T16:17:19;13.90;;;5.93;;
55869;SDS011;41790;50.940;4.560;2023-02-21T16:19:57;14.43;;;5.35;;
55869;SDS011;41790;50.940;4.560;2023-02-21T16:27:37;13.00;;;6.10;;
55869;SDS011;41790;50.940;4.560;2023-02-21T16:30:04;14.15;;;5.90;;
55869;SDS011;41790;50.940;4.560;2023-02-21T16:32:34;15.10;;;6.30;;
55869;SDS011;41790;50.940;4.560;2023-02-21T16:35:00;15.55;;;5.60;;
55869;SDS011;41790;50.940;4.560;2023-02-21T16:37:26;16.08;;;5.70;;
55869;SDS011;41790;50.940;4.560;2023-02-21T16:39:52;16.40;;;6.22;;
55869;SDS011;41790;50.940;4.560;2023-02-21T16:42:19;24.83;;;6.72;;
55869;SDS011;41790;50.940;4.560;2023-02-21T16:44:45;16.75;;;6.93;;
55869;SDS011;41790;50.940;4.560;2023-02-21T16:47:14;11.20;;;5.32;;
55869;SDS011;41790;50.940;4.560;2023-02-21T16:49:42;18.05;;;6.40;;
55869;SDS011;41790;50.940;4.560;2023-02-21T16:52:13;17.50;;;6.95;;
55869;SDS011;41790;50.940;4.560;2023-02-21T16:54:40;15.43;;;6.32;;
55869;SDS011;41790;50.940;4.560;2023-02-21T16:57:06;14.98;;;5.97;;
55869;SDS011;41790;50.940;4.560;2023-02-21T16:59:32;14.10;;;6.40;;
55869;SDS011;41790;50.940;4.560;2023-02-21T17:02:00;15.57;;;6.40;;
55869;SDS011;41790;50.940;4.560;2023-02-21T17:04:28;14.23;;;6.53;;
55869;SDS011;41790;50.940;4.560;2023-02-21T17:06:57;27.98;;;11.35;;
55869;SDS011;41790;50.940;4.560;2023-02-21T17:09:28;31.95;;;11.38;;
55869;SDS011;41790;50.940;4.560;2023-02-21T17:11:58;22.17;;;7.18;;
55869;SDS011;41790;50.940;4.560;2023-02-21T17:14:24;32.10;;;11.98;;
55869;SDS011;41790;50.940;4.560;2023-02-21T17:16:50;22.52;;;8.68;;
55869;SDS011;41790;50.940;4.560;2023-02-21T17:19:17;14.55;;;6.38;;
55869;SDS011;41790;50.940;4.560;2023-02-21T17:21:45;12.85;;;6.20;;
55869;SDS011;41790;50.940;4.560;2023-02-21T17:24:12;14.02;;;5.90;;
55869;SDS011;41790;50.940;4.560;2023-02-21T17:26:39;19.02;;;6.93;;
55869;SDS011;41790;50.940;4.560;2023-02-21T17:29:06;17.63;;;7.10;;
55869;SDS011;41790;50.940;4.560;2023-02-21T17:31:33;19.63;;;6.07;;
55869;SDS011;41790;50.940;4.560;2023-02-21T17:33:59;15.98;;;6.88;;
55869;SDS011;41790;50.940;4.560;2023-02-21T17:36:26;16.70;;;6.75;;
55869;SDS011;41790;50.940;4.560;2023-02-21T17:38:52;16.13;;;6.38;;
55869;SDS011;41790;50.940;4.560;2023-02-21T17:41:19;20.20;;;7.03;;
55869;SDS011;41790;50.940;4.560;2023-02-21T17:43:46;22.98;;;8.45;;
55869;SDS011;41790;50.940;4.560;2023-02-21T17:46:12;25.38;;;12.90;;
55869;SDS011;41790;50.940;4.560;2023-02-21T17:48:41;13.68;;;6.55;;
55869;SDS011;41790;50.940;4.560;2023-02-21T17:51:08;15.02;;;6.22;;
55869;SDS011;41790;50.940;4.560;2023-02-21T17:53:34;15.55;;;6.72;;
55869;SDS011;41790;50.940;4.560;2023-02-21T17:56:00;16.48;;;7.03;;
55869;SDS011;41790;50.940;4.560;2023-02-21T17:58:26;15.68;;;8.13;;
55869;SDS011;41790;50.940;4.560;2023-02-21T18:00:56;13.60;;;6.68;;
55869;SDS011;41790;50.940;4.560;2023-02-21T18:03:22;22.90;;;6.95;;
55869;SDS011;41790;50.940;4.560;2023-02-21T18:05:49;19.08;;;6.68;;